Time;durP1;ratioP1;P1;durP2;ratioP2;P2;SDS_P1;SDS_P2;PMS_P1;PMS_P2;Temp;Humidity;BMP_temperature;BMP_pressure;BME280_temperature;BME280_humidity;BME280_pressure;Samples;Min_cycle;Max_cycle;Signal;HPM_P1;HPM_P2
2022/09/25 00:01:34;;;;;;;;;;;12.20;99.90;;;;;;12468264;28;20416;-84
2022/09/25 00:07:36;;;;;;;;;;;12.30;99.90;;;;;;12478673;28;19925;-84
2022/09/25 00:13:39;;;;;;;;;;;12.30;99.90;;;;;;12481790;28;19929;-84
2022/09/25 00:19:49;;;;;;;;;;;12.10;99.90;;;;;;12480916;28;20078;-84
2022/09/25 00:25:52;;;;;;;;;;;12.20;99.90;;;;;;12472176;28;19929;-85
2022/09/25 00:31:54;;;;;;;;;;;12.00;99.90;;;;;;12474068;28;19936;-84
2022/09/25 00:37:55;;;;;;;;;;;12.10;99.90;;;;;;12475992;28;19929;-84
2022/09/25 00:43:58;;;;;;;;;;;12.00;99.90;;;;;;12488232;28;19929;-84
2022/09/25 00:50:01;;;;;;;;;;;11.90;99.90;;;;;;12475139;28;20434;-85
2022/09/25 00:56:04;;;;;;;;;;;12.00;99.90;;;;;;12455665;28;19929;-85
2022/09/25 01:02:08;;;;;;;;;;;11.90;99.90;;;;;;12468890;28;19940;-84
2022/09/25 01:08:11;;;;;;;;;;;11.90;99.90;;;;;;12470383;28;19929;-84
2022/09/25 01:14:16;;;;;;;;;;;11.90;99.90;;;;;;12476836;28;20369;-85
2022/09/25 01:20:29;;;;;;;;;;;12.00;99.90;;;;;;12469105;28;19932;-84
2022/09/25 01:26:34;;;;;;;;;;;11.90;99.90;;;;;;12468799;28;19936;-85
2022/09/25 01:32:54;;;;;;;;;;;11.90;99.90;;;;;;12462274;28;19925;-85
2022/09/25 01:38:55;;;;;;;;;;;12.00;99.90;;;;;;12473026;28;19940;-84
2022/09/25 01:45:01;;;;;;;;;;;12.00;99.90;;;;;;12469819;28;19926;-85
2022/09/25 01:51:05;;;;;;;;;;;11.90;99.90;;;;;;12468276;28;19936;-84
2022/09/25 01:57:09;;;;;;;;;;;11.90;99.90;;;;;;12455265;28;19925;-85
2022/09/25 02:03:17;;;;;;;;;;;11.90;99.90;;;;;;12453891;28;19937;-85
2022/09/25 02:09:51;;;;;;;;;;;11.80;99.90;;;;;;12455952;28;20031;-84
2022/09/25 02:15:58;;;;;;;;;;;11.70;99.90;;;;;;12431348;28;19932;-84
2022/09/25 02:22:07;;;;;;;;;;;11.60;99.90;;;;;;12485823;28;19936;-85
2022/09/25 02:28:09;;;;;;;;;;;11.70;99.90;;;;;;12470932;28;19926;-84
2022/09/25 02:34:11;;;;;;;;;;;11.70;99.90;;;;;;12465525;28;19937;-85
2022/09/25 02:40:16;;;;;;;;;;;11.70;99.90;;;;;;12458676;28;20309;-84
2022/09/25 02:46:21;;;;;;;;;;;11.70;99.90;;;;;;12470036;28;19929;-85
2022/09/25 02:52:39;;;;;;;;;;;11.80;99.90;;;;;;12489917;28;19948;-84
2022/09/25 02:58:44;;;;;;;;;;;11.70;99.90;;;;;;12467759;28;19940;-84
2022/09/25 03:04:47;;;;;;;;;;;11.70;99.90;;;;;;12475145;28;19925;-84
2022/09/25 03:10:49;;;;;;;;;;;11.70;99.90;;;;;;12483373;28;19925;-85
2022/09/25 03:16:54;;;;;;;;;;;11.60;99.90;;;;;;12478159;28;20396;-84
2022/09/25 03:22:55;;;;;;;;;;;11.60;99.90;;;;;;12471925;28;19933;-85
2022/09/25 03:29:01;;;;;;;;;;;11.50;99.90;;;;;;12488941;28;20333;-84
2022/09/25 03:35:02;;;;;;;;;;;11.50;99.90;;;;;;12474995;28;19935;-84
2022/09/25 03:41:07;;;;;;;;;;;11.50;99.90;;;;;;12479748;28;19936;-84
2022/09/25 03:47:09;;;;;;;;;;;11.40;99.90;;;;;;12464938;28;19974;-84
2022/09/25 03:53:11;;;;;;;;;;;11.50;99.90;;;;;;12468790;28;19933;-85
2022/09/25 03:59:12;;;;;;;;;;;11.50;99.90;;;;;;12477876;28;20008;-85
2022/09/25 04:05:14;;;;;;;;;;;11.60;99.90;;;;;;12462854;28;19925;-85
2022/09/25 04:11:17;;;;;;;;;;;11.60;99.90;;;;;;12473752;28;20270;-84
2022/09/25 04:17:19;;;;;;;;;;;11.50;99.90;;;;;;12460679;28;19933;-84
2022/09/25 04:23:21;;;;;;;;;;;11.50;99.90;;;;;;12465281;28;19932;-84
2022/09/25 04:29:23;;;;;;;;;;;11.40;99.90;;;;;;12470279;28;20395;-85
2022/09/25 04:35:24;;;;;;;;;;;11.30;99.90;;;;;;12477670;28;19925;-85
2022/09/25 04:41:26;;;;;;;;;;;11.20;99.90;;;;;;12460397;28;19932;-84
2022/09/25 04:47:28;;;;;;;;;;;11.10;99.90;;;;;;12476344;28;19930;-84
2022/09/25 04:53:33;;;;;;;;;;;11.10;99.90;;;;;;12462427;28;20032;-85
2022/09/25 04:59:36;;;;;;;;;;;11.10;99.90;;;;;;12464169;28;19948;-84
2022/09/25 05:05:37;;;;;;;;;;;11.10;99.90;;;;;;12466077;28;20279;-85
2022/09/25 05:11:39;;;;;;;;;;;11.20;99.90;;;;;;12478298;28;19930;-85
2022/09/25 05:17:41;;;;;;;;;;;11.10;99.90;;;;;;12467941;28;20309;-85
2022/09/25 05:23:43;;;;;;;;;;;11.00;99.90;;;;;;12459678;28;19932;-85
2022/09/25 05:29:44;;;;;;;;;;;11.00;99.90;;;;;;12473538;28;19929;-85
2022/09/25 05:35:47;;;;;;;;;;;10.90;99.90;;;;;;12480323;28;19960;-85
2022/09/25 05:41:49;;;;;;;;;;;10.90;99.90;;;;;;12473829;28;20309;-85
2022/09/25 05:48:01;;;;;;;;;;;10.90;99.90;;;;;;12466789;28;19940;-85
2022/09/25 05:54:02;;;;;;;;;;;10.90;99.90;;;;;;12474947;28;19929;-85
2022/09/25 06:00:06;;;;;;;;;;;10.80;99.90;;;;;;12459042;28;20008;-85
2022/09/25 06:06:08;;;;;;;;;;;10.80;99.90;;;;;;12462117;28;19925;-85
2022/09/25 06:12:10;;;;;;;;;;;10.80;99.90;;;;;;12480199;28;19936;-85
2022/09/25 06:18:11;;;;;;;;;;;10.80;99.90;;;;;;12469013;28;19929;-85
2022/09/25 06:24:13;;;;;;;;;;;10.90;99.90;;;;;;12464099;28;19925;-85
2022/09/25 06:30:15;;;;;;;;;;;10.80;99.90;;;;;;12474124;28;19925;-85
2022/09/25 06:36:16;;;;;;;;;;;10.70;99.90;;;;;;12466781;28;20361;-85
2022/09/25 06:42:18;;;;;;;;;;;10.80;99.90;;;;;;12458644;28;20278;-85
2022/09/25 06:48:20;;;;;;;;;;;10.80;99.90;;;;;;12472612;28;19940;-85
2022/09/25 06:54:22;;;;;;;;;;;10.70;99.90;;;;;;12458938;28;19979;-85
2022/09/25 07:00:24;;;;;;;;;;;10.70;99.90;;;;;;12461279;28;19929;-85
2022/09/25 07:06:27;;;;;;;;;;;10.90;99.90;;;;;;12443480;28;19925;-85
2022/09/25 07:12:33;;;;;;;;;;;11.00;99.90;;;;;;12407136;28;21451;-85
2022/09/25 07:18:34;;;;;;;;;;;11.10;99.90;;;;;;12411927;28;19930;-85
2022/09/25 07:24:37;;;;;;;;;;;11.00;99.90;;;;;;12424676;28;19932;-84
2022/09/25 07:30:39;;;;;;;;;;;11.10;99.90;;;;;;12416295;28;19933;-85
2022/09/25 07:36:41;;;;;;;;;;;11.40;99.90;;;;;;12418169;28;20320;-85
2022/09/25 07:42:43;;;;;;;;;;;11.40;99.90;;;;;;12433684;28;19932;-85
2022/09/25 07:48:47;;;;;;;;;;;11.60;99.90;;;;;;12424354;28;21482;-85
2022/09/25 07:54:48;;;;;;;;;;;11.70;99.90;;;;;;12419270;28;19930;-85
2022/09/25 08:00:50;;;;;;;;;;;11.80;99.90;;;;;;12388429;28;20309;-86
2022/09/25 08:06:52;;;;;;;;;;;12.00;99.90;;;;;;12442508;28;20035;-85
2022/09/25 08:12:54;;;;;;;;;;;12.00;99.90;;;;;;12483575;28;19936;-85
2022/09/25 08:18:56;;;;;;;;;;;12.00;99.90;;;;;;12482545;28;19925;-85
2022/09/25 08:24:57;;;;;;;;;;;12.40;99.90;;;;;;12475154;28;19925;-85
2022/09/25 08:31:00;;;;;;;;;;;12.50;99.90;;;;;;12459202;28;19925;-85
2022/09/25 08:37:02;;;;;;;;;;;12.20;99.90;;;;;;12465602;28;19978;-85
2022/09/25 08:43:04;;;;;;;;;;;12.40;99.90;;;;;;12472234;28;19925;-85
2022/09/25 08:49:08;;;;;;;;;;;12.60;99.90;;;;;;12485754;28;19925;-85
2022/09/25 08:55:22;;;;;;;;;;;12.30;99.90;;;;;;12461399;28;19963;-85
2022/09/25 09:01:25;;;;;;;;;;;12.70;99.90;;;;;;12455911;28;19925;-85
2022/09/25 09:07:36;;;;;;;;;;;12.70;99.90;;;;;;12458353;28;20300;-86
2022/09/25 09:13:41;;;;;;;;;;;13.00;99.90;;;;;;12477802;28;19932;-86
2022/09/25 09:19:47;;;;;;;;;;;13.30;99.90;;;;;;12470622;28;20361;-87
2022/09/25 09:26:02;;;;;;;;;;;13.50;99.90;;;;;;12483528;28;20360;-86
2022/09/25 09:32:23;;;;;;;;;;;13.90;99.90;;;;;;12465485;28;20336;-86
2022/09/25 09:38:31;;;;;;;;;;;13.90;99.90;;;;;;12487394;28;20382;-86
2022/09/25 09:44:33;;;;;;;;;;;14.00;99.90;;;;;;12477108;28;19953;-86
2022/09/25 09:50:52;;;;;;;;;;;14.00;99.90;;;;;;12477174;28;19932;-87
2022/09/25 09:56:55;;;;;;;;;;;14.40;99.90;;;;;;12459849;28;19933;-87
2022/09/25 10:02:59;;;;;;;;;;;14.30;99.90;;;;;;12462010;28;19925;-86
2022/09/25 10:09:01;;;;;;;;;;;14.50;99.90;;;;;;12469708;28;19932;-87
2022/09/25 10:15:06;;;;;;;;;;;14.90;99.90;;;;;;12464428;28;19925;-86
2022/09/25 10:21:17;;;;;;;;;;;15.10;99.90;;;;;;12465028;28;20298;-87
2022/09/25 10:27:27;;;;;;;;;;;14.80;99.90;;;;;;12471375;28;19936;-86
2022/09/25 10:33:29;;;;;;;;;;;14.50;99.90;;;;;;12458415;28;20304;-87
2022/09/25 10:39:35;;;;;;;;;;;14.40;99.90;;;;;;12476755;28;20383;-87
2022/09/25 10:45:51;;;;;;;;;;;14.30;99.90;;;;;;12463726;28;19929;-86
2022/09/25 10:52:06;;;;;;;;;;;14.30;99.90;;;;;;12459785;28;19936;-86
2022/09/25 10:58:19;;;;;;;;;;;14.20;99.90;;;;;;12458579;28;19932;-86
2022/09/25 11:04:29;;;;;;;;;;;15.20;99.90;;;;;;12465468;28;19932;-87
2022/09/25 11:10:35;;;;;;;;;;;15.90;99.90;;;;;;12472964;28;19933;-87
2022/09/25 11:16:47;;;;;;;;;;;16.40;99.90;;;;;;12472533;28;20470;-87
2022/09/25 11:22:52;;;;;;;;;;;16.40;99.90;;;;;;12477236;28;20027;-87
2022/09/25 11:29:00;;;;;;;;;;;16.10;99.90;;;;;;12474474;28;19926;-87
2022/09/25 11:35:04;;;;;;;;;;;15.40;99.90;;;;;;12470905;28;19925;-87
2022/09/25 11:41:19;;;;;;;;;;;14.90;99.90;;;;;;12471176;28;20001;-88
2022/09/25 11:47:30;;;;;;;;;;;14.60;99.90;;;;;;12492993;28;19929;-87
2022/09/25 11:54:05;;;;;;;;;;;14.40;99.90;;;;;;12479566;28;20373;-87
2022/09/25 12:00:27;;;;;;;;;;;14.50;99.90;;;;;;12428012;28;20377;-87
2022/09/25 12:06:47;;;;;;;;;;;14.40;99.90;;;;;;12459491;28;19925;-87
2022/09/25 12:12:58;;;;;;;;;;;14.50;99.90;;;;;;12479174;28;20339;-86
2022/09/25 12:18:59;;;;;;;;;;;14.60;99.90;;;;;;12454110;28;19951;-87
2022/09/25 12:25:04;;;;;;;;;;;14.60;99.90;;;;;;12449240;28;19929;-87
2022/09/25 12:31:15;;;;;;;;;;;14.80;99.90;;;;;;12452239;28;19926;-87
2022/09/25 12:37:41;;;;;;;;;;;14.60;99.90;;;;;;12459952;28;19937;-87
2022/09/25 12:43:47;;;;;;;;;;;14.80;99.90;;;;;;12463064;28;19925;-87
2022/09/25 12:49:58;;;;;;;;;;;15.00;99.90;;;;;;12456068;28;19926;-87
2022/09/25 12:56:08;;;;;;;;;;;15.70;99.90;;;;;;12463344;28;19936;-86
2022/09/25 13:02:10;;;;;;;;;;;15.60;99.90;;;;;;12464021;28;20340;-87
2022/09/25 13:08:19;;;;;;;;;;;15.50;99.90;;;;;;12464612;28;19936;-87
2022/09/25 13:14:33;;;;;;;;;;;15.50;99.90;;;;;;12479303;28;19929;-88
2022/09/25 13:20:40;;;;;;;;;;;15.30;99.90;;;;;;12468431;28;19930;-88
2022/09/25 13:26:43;;;;;;;;;;;15.10;99.90;;;;;;12481394;28;19936;-87
2022/09/25 13:32:49;;;;;;;;;;;14.90;99.90;;;;;;12471509;28;19932;-87
2022/09/25 13:45:20;;;;;;;;;;;14.30;99.90;;;;;;12485125;28;20315;-87
2022/09/25 13:51:22;;;;;;;;;;;14.10;99.90;;;;;;12477146;28;20431;-87
2022/09/25 13:57:42;;;;;;;;;;;14.00;99.90;;;;;;12451037;28;19933;-87
2022/09/25 14:03:45;;;;;;;;;;;13.90;99.90;;;;;;12462203;28;19932;-87
2022/09/25 14:09:50;;;;;;;;;;;13.90;99.90;;;;;;12459523;28;19925;-87
2022/09/25 14:15:53;;;;;;;;;;;14.00;99.90;;;;;;12451064;28;19929;-87
2022/09/25 14:21:56;;;;;;;;;;;14.20;99.90;;;;;;12461126;28;20217;-87
2022/09/25 14:28:02;;;;;;;;;;;14.80;99.90;;;;;;12460463;28;19932;-87
2022/09/25 14:34:20;;;;;;;;;;;14.90;99.90;;;;;;12446436;28;19929;-87
2022/09/25 14:40:25;;;;;;;;;;;15.10;99.90;;;;;;12451203;28;19929;-87
2022/09/25 14:46:27;;;;;;;;;;;15.10;99.90;;;;;;12467180;28;19936;-87
2022/09/25 14:52:31;;;;;;;;;;;15.00;99.90;;;;;;12458344;28;19976;-87
2022/09/25 14:58:34;;;;;;;;;;;15.00;99.90;;;;;;12475179;28;20285;-87
2022/09/25 15:04:35;;;;;;;;;;;15.20;99.90;;;;;;12452644;28;19926;-87
2022/09/25 15:10:37;;;;;;;;;;;15.60;99.90;;;;;;12485135;28;20293;-87
2022/09/25 15:23:02;;;;;;;;;;;16.20;99.90;;;;;;12478594;28;20711;-87
2022/09/25 15:29:12;;;;;;;;;;;16.20;99.90;;;;;;12477206;28;19933;-87
2022/09/25 15:35:17;;;;;;;;;;;16.20;99.90;;;;;;12474195;28;19930;-87
2022/09/25 15:41:19;;;;;;;;;;;16.10;99.90;;;;;;12462902;28;19925;-87
2022/09/25 15:47:33;;;;;;;;;;;16.10;99.90;;;;;;12490579;28;19910;-87
2022/09/25 15:53:42;;;;;;;;;;;16.30;99.90;;;;;;12471634;28;19925;-87
2022/09/25 16:06:11;;;;;;;;;;;16.80;99.90;;;;;;12472357;28;19936;-87
2022/09/25 16:12:21;;;;;;;;;;;16.90;99.90;;;;;;12546244;28;19941;-88
2022/09/25 16:18:23;;;;;;;;;;;16.90;99.90;;;;;;12523555;28;19944;-87
2022/09/25 16:24:27;;;;;;;;;;;16.20;99.90;;;;;;12530125;28;19976;-87
2022/09/25 16:30:28;;;;;;;;;;;15.90;99.90;;;;;;12522973;28;19996;-87
2022/09/25 16:36:41;;;;;;;;;;;15.50;99.90;;;;;;12493397;28;20322;-87
2022/09/25 16:42:43;;;;;;;;;;;15.20;99.90;;;;;;12465466;28;19935;-87
2022/09/25 16:48:56;;;;;;;;;;;14.90;99.90;;;;;;12473383;28;19932;-87
2022/09/25 16:54:58;;;;;;;;;;;14.70;99.90;;;;;;12471131;28;19929;-87
2022/09/25 17:01:03;;;;;;;;;;;14.60;99.90;;;;;;12457165;28;20098;-87
2022/09/25 17:07:07;;;;;;;;;;;14.30;99.90;;;;;;12470158;28;20011;-87
2022/09/25 17:13:09;;;;;;;;;;;14.20;99.90;;;;;;12473312;28;19929;-87
2022/09/25 17:19:14;;;;;;;;;;;13.90;99.90;;;;;;12476178;28;19929;-87
2022/09/25 17:25:37;;;;;;;;;;;13.60;99.90;;;;;;12475681;28;19979;-87
2022/09/25 17:31:38;;;;;;;;;;;13.50;99.90;;;;;;12458165;28;19925;-87
2022/09/25 17:37:40;;;;;;;;;;;13.20;99.90;;;;;;12469520;28;19931;-86
2022/09/25 17:43:42;;;;;;;;;;;13.10;99.90;;;;;;12477583;28;20278;-86
2022/09/25 17:49:44;;;;;;;;;;;13.10;99.90;;;;;;12482557;28;20311;-86
2022/09/25 17:55:46;;;;;;;;;;;13.10;99.90;;;;;;12455344;28;19979;-86
2022/09/25 18:01:56;;;;;;;;;;;13.20;99.90;;;;;;12473573;28;19929;-86
2022/09/25 18:07:59;;;;;;;;;;;13.10;99.90;;;;;;12456052;28;20293;-86
2022/09/25 18:14:01;;;;;;;;;;;13.20;99.90;;;;;;12454674;28;20374;-86
2022/09/25 18:26:24;;;;;;;;;;;13.20;99.90;;;;;;12460363;28;19948;-86
2022/09/25 18:32:31;;;;;;;;;;;13.10;99.90;;;;;;12445622;28;20285;-86
2022/09/25 18:38:33;;;;;;;;;;;13.00;99.90;;;;;;12464922;28;19933;-86
2022/09/25 18:44:37;;;;;;;;;;;12.90;99.90;;;;;;12459101;28;19948;-86
2022/09/25 18:50:47;;;;;;;;;;;12.90;99.90;;;;;;12437146;28;20436;-86
2022/09/25 18:56:48;;;;;;;;;;;12.90;99.90;;;;;;12459009;28;19925;-86
2022/09/25 19:02:50;;;;;;;;;;;12.80;99.90;;;;;;12458210;28;19925;-86
2022/09/25 19:08:53;;;;;;;;;;;12.80;99.90;;;;;;12475099;28;19930;-86
2022/09/25 19:14:55;;;;;;;;;;;12.50;99.90;;;;;;12472981;28;19937;-86
2022/09/25 19:20:56;;;;;;;;;;;12.40;99.90;;;;;;12456455;28;19940;-86
2022/09/25 19:26:58;;;;;;;;;;;12.20;99.90;;;;;;12478452;28;19929;-86
2022/09/25 19:33:00;;;;;;;;;;;12.20;99.90;;;;;;12474355;28;19925;-86
2022/09/25 19:39:02;;;;;;;;;;;12.20;99.90;;;;;;12466846;28;19932;-86
2022/09/25 19:45:04;;;;;;;;;;;12.20;99.90;;;;;;12472674;28;19941;-86
2022/09/25 19:51:06;;;;;;;;;;;12.10;99.90;;;;;;12468206;28;19929;-86
2022/09/25 19:57:08;;;;;;;;;;;11.90;99.90;;;;;;12470702;28;19932;-86
2022/09/25 20:03:10;;;;;;;;;;;11.90;99.90;;;;;;12473759;28;19933;-86
2022/09/25 20:09:11;;;;;;;;;;;11.60;99.90;;;;;;12468326;28;19958;-86
2022/09/25 20:15:13;;;;;;;;;;;11.60;99.90;;;;;;12469597;28;20024;-86
2022/09/25 20:21:16;;;;;;;;;;;11.50;99.90;;;;;;12449271;28;19936;-86
2022/09/25 20:27:18;;;;;;;;;;;11.50;99.90;;;;;;12451486;28;19984;-86
2022/09/25 20:33:23;;;;;;;;;;;11.50;99.90;;;;;;12456886;28;19925;-86
2022/09/25 20:39:26;;;;;;;;;;;11.60;99.90;;;;;;12457099;28;19944;-86
2022/09/25 20:45:28;;;;;;;;;;;11.50;99.90;;;;;;12466238;28;19964;-86
2022/09/25 20:51:31;;;;;;;;;;;11.40;99.90;;;;;;12458605;28;19926;-86
2022/09/25 20:57:32;;;;;;;;;;;11.20;99.90;;;;;;12443661;28;19936;-86
2022/09/25 21:03:35;;;;;;;;;;;11.20;99.90;;;;;;12455642;28;19926;-86
2022/09/25 21:09:37;;;;;;;;;;;11.10;99.90;;;;;;12470968;28;19925;-86
2022/09/25 21:15:39;;;;;;;;;;;11.00;99.90;;;;;;12473452;28;19932;-86
2022/09/25 21:21:41;;;;;;;;;;;10.80;99.90;;;;;;12475387;28;19926;-86
2022/09/25 21:27:43;;;;;;;;;;;10.70;99.90;;;;;;12476066;28;20385;-86
2022/09/25 21:33:44;;;;;;;;;;;10.80;99.90;;;;;;12474013;28;19932;-86
2022/09/25 21:39:46;;;;;;;;;;;10.70;99.90;;;;;;12454763;28;20361;-86
2022/09/25 21:45:47;;;;;;;;;;;10.70;99.90;;;;;;12471982;28;19933;-86
2022/09/25 21:51:49;;;;;;;;;;;10.70;99.90;;;;;;12464760;28;19925;-86
2022/09/25 21:57:52;;;;;;;;;;;10.60;99.90;;;;;;12458645;28;19925;-86
2022/09/25 22:03:54;;;;;;;;;;;10.50;99.90;;;;;;12451151;28;19936;-86
2022/09/25 22:09:56;;;;;;;;;;;10.50;99.90;;;;;;12467350;28;19936;-86
2022/09/25 22:15:59;;;;;;;;;;;10.40;99.90;;;;;;12450300;28;19929;-86
2022/09/25 22:22:01;;;;;;;;;;;10.40;99.90;;;;;;12451722;28;19930;-86
2022/09/25 22:28:02;;;;;;;;;;;10.30;99.90;;;;;;12454664;28;19940;-86
2022/09/25 22:34:05;;;;;;;;;;;10.30;99.90;;;;;;12451315;28;19936;-86
2022/09/25 22:40:07;;;;;;;;;;;10.30;99.90;;;;;;12459196;28;19925;-86
2022/09/25 22:46:09;;;;;;;;;;;10.30;99.90;;;;;;12464074;28;20289;-86
2022/09/25 22:52:12;;;;;;;;;;;10.30;99.90;;;;;;12455896;28;19972;-86
2022/09/25 22:58:14;;;;;;;;;;;10.20;99.90;;;;;;12444950;28;20365;-86
2022/09/25 23:04:17;;;;;;;;;;;10.20;99.90;;;;;;12438524;28;19925;-85
2022/09/25 23:10:19;;;;;;;;;;;10.10;99.90;;;;;;12473497;28;19925;-85
2022/09/25 23:16:21;;;;;;;;;;;10.10;99.90;;;;;;12479477;28;20373;-85
2022/09/25 23:22:22;;;;;;;;;;;10.10;99.90;;;;;;12479045;28;19934;-85
2022/09/25 23:28:24;;;;;;;;;;;10.10;99.90;;;;;;12491626;28;19925;-85
2022/09/25 23:34:26;;;;;;;;;;;10.00;99.90;;;;;;12461960;28;19925;-85
2022/09/25 23:40:27;;;;;;;;;;;10.00;99.90;;;;;;12473408;28;19932;-85
2022/09/25 23:46:31;;;;;;;;;;;10.10;99.90;;;;;;12486881;28;19936;-85
2022/09/25 23:52:32;;;;;;;;;;;10.10;99.90;;;;;;12456660;28;19929;-85
2022/09/25 23:58:34;;;;;;;;;;;10.10;99.90;;;;;;12463062;28;19925;-84
